createdAt,value
2018-12-30T00:01:18.610Z,3.00
2018-12-30T00:04:27.206Z,3.53
2018-12-30T00:06:57.660Z,3.10
2018-12-30T00:12:21.303Z,2.77
2018-12-30T00:14:50.275Z,2.90
2018-12-30T00:17:21.147Z,2.63
2018-12-30T00:19:49.902Z,2.93
2018-12-30T00:22:38.113Z,2.60
2018-12-30T00:25:06.916Z,3.20
2018-12-30T00:27:35.794Z,2.70
2018-12-30T00:30:44.724Z,2.83
2018-12-30T00:33:13.520Z,3.73
2018-12-30T00:35:42.402Z,3.60
2018-12-30T00:38:11.291Z,3.30
2018-12-30T00:40:40.303Z,2.60
2018-12-30T00:43:09.078Z,2.10
2018-12-30T00:45:37.868Z,2.67
2018-12-30T00:48:06.660Z,3.57
2018-12-30T00:50:49.054Z,2.77
2018-12-30T00:53:07.666Z,2.70
2018-12-30T00:55:36.427Z,2.87
2018-12-30T00:58:05.393Z,3.23
2018-12-30T01:00:34.181Z,2.17
2018-12-30T01:03:03.053Z,2.33
2018-12-30T01:05:31.858Z,3.10
2018-12-30T01:08:00.640Z,2.43
2018-12-30T01:10:48.649Z,3.10
2018-12-30T01:13:17.584Z,4.47
2018-12-30T01:15:46.425Z,3.87
2018-12-30T01:18:15.219Z,3.17
2018-12-30T01:20:43.952Z,3.20
2018-12-30T01:23:12.742Z,4.30
2018-12-30T01:25:41.586Z,2.33
2018-12-30T01:31:25.669Z,4.03
2018-12-30T01:33:54.461Z,4.80
2018-12-30T01:36:23.180Z,5.03
2018-12-30T01:38:51.981Z,5.20
2018-12-30T01:41:20.750Z,4.13
2018-12-30T01:44:04.113Z,4.40
2018-12-30T01:46:20.084Z,4.53
2018-12-30T01:48:48.812Z,4.03
2018-12-30T01:54:12.138Z,5.43
2018-12-30T01:56:40.869Z,5.20
2018-12-30T01:59:09.655Z,5.60
2018-12-30T02:01:38.391Z,6.10
2018-12-30T02:04:07.212Z,6.70
2018-12-30T02:06:36.019Z,5.47
2018-12-30T02:09:44.570Z,7.23
2018-12-30T02:12:13.392Z,7.30
2018-12-30T02:14:42.184Z,5.93
2018-12-30T02:17:25.543Z,7.57
2018-12-30T02:19:44.022Z,5.90
2018-12-30T02:25:20.950Z,4.70
2018-12-30T02:28:29.505Z,5.70
2018-12-30T02:30:58.287Z,4.77
2018-12-30T02:33:41.700Z,4.90
2018-12-30T02:35:57.538Z,5.03
2018-12-30T02:38:26.332Z,4.80
2018-12-30T02:40:55.080Z,5.10
2018-12-30T02:43:35.942Z,5.33
2018-12-30T02:45:54.363Z,3.90
2018-12-30T02:48:36.719Z,3.70
2018-12-30T02:50:55.295Z,4.03
2018-12-30T02:53:25.905Z,4.60
2018-12-30T02:55:54.685Z,4.90
2018-12-30T02:58:23.437Z,4.40
2018-12-30T03:00:52.523Z,5.27
2018-12-30T03:06:10.372Z,4.33
2018-12-30T03:09:19.005Z,5.00
2018-12-30T03:11:47.981Z,3.80
2018-12-30T03:14:18.973Z,3.87
2018-12-30T03:16:47.702Z,3.47
2018-12-30T03:19:16.453Z,4.70
2018-12-30T03:21:45.229Z,4.70
2018-12-30T03:24:13.973Z,4.33
2018-12-30T03:27:02.021Z,5.70
2018-12-30T03:29:49.852Z,5.63
2018-12-30T03:32:18.632Z,7.60
2018-12-30T03:34:47.420Z,6.27
2018-12-30T03:37:16.142Z,6.30
2018-12-30T03:39:45.023Z,5.50
2018-12-30T03:42:14.040Z,5.57
2018-12-30T03:44:42.737Z,5.17
2018-12-30T03:47:11.553Z,5.50
2018-12-30T03:49:40.330Z,6.37
2018-12-30T03:52:09.186Z,4.60
2018-12-30T03:54:37.924Z,5.10
2018-12-30T03:57:06.654Z,4.33
2018-12-30T03:59:35.765Z,4.30
2018-12-30T04:02:44.477Z,4.20
2018-12-30T04:05:13.195Z,4.30
2018-12-30T04:07:41.991Z,4.17
2018-12-30T04:10:10.752Z,4.27
2018-12-30T04:12:39.548Z,4.20
2018-12-30T04:15:08.313Z,3.70
2018-12-30T04:17:37.132Z,3.17
2018-12-30T04:20:26.651Z,3.60
2018-12-30T04:22:55.568Z,2.83
2018-12-30T04:25:24.246Z,3.00
2018-12-30T04:27:53.041Z,3.87
2018-12-30T04:30:21.931Z,3.63
2018-12-30T04:32:50.723Z,4.00
2018-12-30T04:35:19.502Z,4.10
2018-12-30T04:43:23.290Z,2.73
2018-12-30T04:45:52.016Z,2.93
2018-12-30T04:48:32.828Z,3.67
2018-12-30T04:50:51.440Z,3.87
2018-12-30T04:56:07.909Z,2.63
2018-12-30T05:01:50.652Z,2.73
2018-12-30T05:04:50.412Z,1.90
2018-12-30T05:07:09.219Z,2.67
2018-12-30T05:09:38.073Z,2.27
2018-12-30T05:12:07.174Z,2.00
2018-12-30T05:14:35.924Z,2.73
2018-12-30T05:17:04.771Z,2.73
2018-12-30T05:19:33.643Z,3.17
2018-12-30T05:22:02.441Z,2.27
2018-12-30T05:24:31.158Z,3.27
2018-12-30T05:27:00.020Z,3.90
2018-12-30T05:32:25.757Z,3.57
2018-12-30T05:35:13.666Z,2.60
2018-12-30T05:37:42.384Z,2.53
2018-12-30T05:40:11.154Z,4.53
2018-12-30T05:42:39.940Z,23.43
2018-12-30T05:45:51.526Z,6.63
2018-12-30T05:48:20.332Z,3.13
2018-12-30T05:50:49.228Z,2.53
2018-12-30T05:56:07.086Z,2.40
2018-12-30T05:58:35.965Z,2.37
2018-12-30T06:01:04.855Z,3.17
2018-12-30T06:03:33.643Z,2.00
2018-12-30T06:06:02.528Z,2.03
2018-12-30T06:08:31.426Z,2.37
2018-12-30T06:11:00.220Z,2.40
2018-12-30T06:13:29.136Z,2.03
2018-12-30T06:15:57.963Z,2.20
2018-12-30T06:18:26.790Z,1.10
2018-12-30T06:21:35.409Z,1.10
2018-12-30T06:24:04.189Z,0.87
2018-12-30T06:26:32.905Z,0.70
2018-12-30T06:29:20.726Z,1.00
2018-12-30T06:31:49.483Z,0.67
2018-12-30T06:34:18.255Z,0.77
2018-12-30T06:36:47.036Z,0.80
2018-12-30T06:39:27.769Z,0.80
2018-12-30T06:41:46.487Z,0.50
2018-12-30T06:44:15.202Z,0.70
2018-12-30T06:46:55.666Z,1.50
2018-12-30T06:49:35.505Z,2.60
2018-12-30T06:52:04.307Z,0.90
2018-12-30T06:54:47.331Z,0.60
2018-12-30T06:57:03.827Z,0.87
2018-12-30T07:00:18.275Z,1.37
2018-12-30T07:02:26.450Z,0.90
2018-12-30T07:04:55.174Z,1.07
2018-12-30T07:07:23.958Z,0.43
2018-12-30T07:09:54.602Z,0.30
2018-12-30T07:12:42.735Z,0.90
2018-12-30T07:15:30.749Z,1.40
2018-12-30T07:17:59.536Z,1.40
2018-12-30T07:20:47.557Z,1.00
2018-12-30T07:23:16.327Z,1.10
2018-12-30T07:25:57.254Z,1.10
2018-12-30T07:28:15.707Z,1.00
2018-12-30T07:31:58.802Z,0.73
2018-12-30T07:33:36.738Z,1.00
2018-12-30T07:36:17.169Z,1.73
2018-12-30T07:38:36.009Z,0.60
2018-12-30T07:41:06.590Z,0.93
2018-12-30T07:43:35.409Z,0.50
2018-12-30T07:46:04.141Z,0.53
2018-12-30T07:48:52.513Z,0.33
2018-12-30T07:51:21.398Z,0.37
2018-12-30T07:53:50.092Z,0.40
2018-12-30T07:56:18.873Z,0.30
2018-12-30T07:58:47.600Z,0.20
2018-12-30T08:01:28.492Z,0.30
2018-12-30T08:03:46.914Z,0.30
2018-12-30T08:06:15.709Z,0.70
2018-12-30T08:08:44.492Z,0.80
2018-12-30T08:11:13.224Z,0.73
2018-12-30T08:13:42.013Z,0.40
2018-12-30T08:16:10.732Z,6.60
2018-12-30T08:18:39.716Z,5.20
2018-12-30T08:21:10.458Z,5.17
2018-12-30T08:24:19.060Z,5.67
2018-12-30T08:26:47.818Z,3.50
2018-12-30T08:29:16.588Z,2.60
2018-12-30T08:31:45.367Z,1.03
2018-12-30T08:34:15.995Z,0.90
2018-12-30T08:36:44.775Z,0.40
2018-12-30T08:39:13.546Z,0.50
2018-12-30T08:41:42.477Z,0.20
2018-12-30T08:44:51.096Z,0.53
2018-12-30T08:47:19.815Z,2.90
2018-12-30T08:49:48.637Z,6.87
2018-12-30T08:52:17.392Z,1.57
2018-12-30T08:54:46.159Z,3.60
2018-12-30T08:57:14.862Z,0.90
2018-12-30T09:00:19.934Z,0.80
2018-12-30T09:02:36.371Z,0.60
2018-12-30T09:08:13.280Z,0.40
2018-12-30T09:10:42.020Z,1.90
2018-12-30T09:13:10.802Z,0.50
2018-12-30T09:15:42.153Z,0.93
2018-12-30T09:18:50.700Z,0.60
2018-12-30T09:21:38.952Z,0.80
2018-12-30T09:24:07.951Z,0.50
2018-12-30T09:26:36.768Z,0.40
2018-12-30T09:29:05.714Z,0.40
2018-12-30T09:31:34.505Z,0.60
2018-12-30T09:34:03.350Z,0.30
2018-12-30T09:36:32.201Z,0.30
2018-12-30T09:39:00.921Z,0.40
2018-12-30T09:41:32.899Z,1.23
2018-12-30T09:44:01.667Z,1.67
2018-12-30T09:46:30.495Z,1.43
2018-12-30T09:48:59.296Z,1.10
2018-12-30T09:51:47.087Z,0.80
2018-12-30T09:54:15.862Z,0.87
2018-12-30T09:59:33.872Z,0.43
2018-12-30T10:02:23.204Z,0.60
2018-12-30T10:04:52.029Z,0.40
2018-12-30T10:07:20.738Z,0.93
2018-12-30T10:09:49.484Z,0.90
2018-12-30T10:14:57.750Z,0.90
2018-12-30T10:17:43.802Z,0.90
2018-12-30T10:20:00.158Z,0.70
2018-12-30T10:22:28.835Z,0.33
2018-12-30T10:24:57.683Z,0.30
2018-12-30T10:30:21.543Z,0.60
2018-12-30T10:35:45.021Z,1.80
2018-12-30T10:38:13.777Z,0.70
2018-12-30T10:40:43.764Z,0.20
2018-12-30T10:46:07.749Z,3.37
2018-12-30T10:48:38.125Z,1.60
2018-12-30T10:51:06.875Z,0.40
2018-12-30T10:53:35.637Z,0.30
2018-12-30T10:56:04.373Z,0.20
2018-12-30T11:01:27.330Z,2.30
2018-12-30T11:03:56.182Z,2.00
2018-12-30T11:07:00.070Z,1.70
2018-12-30T11:12:02.030Z,0.50
2018-12-30T11:14:40.061Z,0.63
2018-12-30T11:17:08.956Z,1.90
2018-12-30T11:22:32.439Z,1.40
2018-12-30T11:25:01.221Z,1.33
2018-12-30T11:27:30.028Z,1.00
2018-12-30T11:30:38.667Z,1.03
2018-12-30T11:33:07.571Z,0.37
2018-12-30T11:35:36.326Z,0.20
2018-12-30T11:38:05.117Z,0.30
2018-12-30T11:43:21.561Z,0.20
2018-12-30T11:45:50.464Z,0.20
2018-12-30T11:48:19.314Z,0.20
2018-12-30T11:51:28.093Z,0.40
2018-12-30T11:56:46.006Z,0.30
2018-12-30T11:59:14.741Z,0.47
2018-12-30T12:01:43.627Z,0.77
2018-12-30T12:04:12.436Z,0.40
2018-12-30T12:07:21.061Z,0.90
2018-12-30T12:09:49.812Z,0.80
2018-12-30T12:12:20.536Z,0.73
2018-12-30T12:14:49.326Z,0.43
2018-12-30T12:17:37.525Z,3.50
2018-12-30T12:20:06.345Z,1.33
2018-12-30T12:23:13.568Z,0.70
2018-12-30T12:25:42.632Z,0.30
2018-12-30T12:28:11.407Z,0.40
2018-12-30T12:30:40.227Z,0.33
2018-12-30T12:33:08.957Z,0.50
2018-12-30T12:35:52.095Z,0.40
2018-12-30T12:38:19.892Z,0.20
2018-12-30T12:41:00.482Z,0.20
2018-12-30T12:46:19.895Z,4.90
2018-12-30T12:49:00.875Z,2.00
2018-12-30T12:51:21.702Z,0.97
2018-12-30T12:53:50.426Z,1.13
2018-12-30T12:59:13.777Z,0.20
2018-12-30T13:01:54.304Z,0.20
2018-12-30T13:04:13.014Z,0.30
2018-12-30T13:09:17.713Z,2.13
2018-12-30T13:11:46.491Z,1.13
2018-12-30T13:15:07.061Z,0.70
2018-12-30T13:17:25.712Z,1.23
2018-12-30T13:20:09.255Z,0.80
2018-12-30T13:22:25.000Z,0.63
2018-12-30T13:24:53.913Z,0.53
2018-12-30T13:27:22.766Z,0.80
2018-12-30T13:29:51.632Z,0.20
2018-12-30T13:32:20.603Z,10.63
2018-12-30T13:34:49.408Z,3.57
2018-12-30T13:37:18.224Z,0.97
2018-12-30T13:39:58.802Z,2.23
2018-12-30T13:44:51.603Z,2.10
2018-12-30T13:47:32.379Z,0.87
2018-12-30T13:50:10.414Z,0.60
2018-12-30T13:56:17.580Z,0.27
2018-12-30T13:58:53.707Z,1.20
2018-12-30T14:04:49.329Z,0.80
2018-12-30T14:07:08.554Z,0.50
2018-12-30T14:09:37.354Z,0.30
2018-12-30T14:12:06.228Z,0.40
2018-12-30T14:15:15.019Z,3.07
2018-12-30T14:20:19.614Z,1.40
2018-12-30T14:23:28.336Z,0.50
2018-12-30T14:25:58.952Z,0.43
2018-12-30T14:28:27.758Z,0.30
2018-12-30T14:31:15.533Z,0.20
2018-12-30T14:36:19.889Z,0.20
2018-12-30T14:39:02.988Z,0.20
2018-12-30T14:41:19.167Z,0.20
2018-12-30T14:44:07.091Z,0.20
2018-12-30T14:46:35.943Z,0.20
2018-12-30T14:49:04.820Z,0.70
2018-12-30T14:51:33.612Z,0.60
2018-12-30T14:54:02.412Z,0.27
2018-12-30T14:59:39.428Z,0.20
2018-12-30T15:02:27.516Z,0.30
2018-12-30T15:07:32.007Z,0.20
2018-12-30T15:10:00.867Z,0.30
2018-12-30T15:12:29.613Z,0.80
2018-12-30T15:17:36.200Z,0.20
2018-12-30T15:20:25.732Z,0.53
2018-12-30T15:29:03.839Z,1.80
2018-12-30T15:31:32.600Z,1.43
2018-12-30T15:34:01.608Z,2.90
2018-12-30T15:36:30.660Z,8.10
2018-12-30T15:38:59.549Z,4.30
2018-12-30T15:41:28.559Z,1.70
2018-12-30T15:44:18.114Z,4.77
2018-12-30T15:46:46.987Z,1.00
2018-12-30T15:49:15.800Z,1.03
2018-12-30T15:51:44.701Z,1.33
2018-12-30T15:54:25.460Z,1.33
2018-12-30T15:56:56.019Z,0.87
2018-12-30T16:11:05.931Z,3.47
2018-12-30T16:13:35.443Z,1.10
2018-12-30T16:16:42.927Z,0.50
2018-12-30T16:19:13.689Z,0.60
2018-12-30T16:22:03.133Z,0.63
2018-12-30T16:24:32.247Z,0.50
2018-12-30T16:27:01.258Z,0.40
2018-12-30T16:29:30.177Z,0.43
2018-12-30T16:31:59.495Z,0.83
2018-12-30T16:34:28.484Z,0.50
2018-12-30T16:36:57.599Z,0.73
2018-12-30T16:39:26.767Z,0.40
2018-12-30T16:41:55.687Z,0.60
2018-12-30T16:44:24.846Z,0.60
2018-12-30T16:47:12.747Z,0.93
2018-12-30T16:49:41.688Z,0.50
2018-12-30T16:52:10.771Z,0.40
2018-12-30T16:57:15.560Z,0.80
2018-12-30T16:59:44.784Z,0.90
2018-12-30T17:02:34.105Z,0.77
2018-12-30T17:05:02.915Z,0.80
2018-12-30T17:07:31.834Z,0.70
2018-12-30T17:10:00.741Z,1.10
2018-12-30T17:12:32.199Z,0.67
2018-12-30T17:15:02.455Z,0.57
2018-12-30T17:17:31.286Z,0.70
2018-12-30T17:20:00.178Z,1.00
2018-12-30T17:22:28.983Z,1.70
2018-12-30T17:24:57.725Z,0.90
2018-12-30T17:27:45.953Z,1.20
2018-12-30T17:30:14.813Z,1.10
2018-12-30T17:32:43.734Z,0.70
2018-12-30T17:35:12.498Z,1.60
2018-12-30T17:37:41.448Z,1.10
2018-12-30T17:40:10.394Z,0.73
2018-12-30T17:42:39.360Z,0.70
2018-12-30T17:45:08.311Z,0.80
2018-12-30T17:48:17.018Z,0.97
2018-12-30T17:51:05.319Z,0.80
2018-12-30T17:53:34.105Z,0.60
2018-12-30T17:56:02.917Z,0.67
2018-12-30T17:58:31.840Z,0.80
2018-12-30T18:01:39.334Z,0.73
2018-12-30T18:04:08.460Z,0.90
2018-12-30T18:06:37.407Z,0.67
2018-12-30T18:09:46.162Z,0.63
2018-12-30T18:12:15.439Z,0.60
2018-12-30T18:14:44.458Z,1.00
2018-12-30T18:17:13.339Z,1.00
2018-12-30T18:19:42.526Z,4.53
2018-12-30T18:22:11.422Z,15.90
2018-12-30T18:24:40.428Z,11.07
2018-12-30T18:29:44.836Z,11.73
2018-12-30T18:32:14.136Z,3.40
2018-12-30T18:34:43.071Z,1.93
2018-12-30T18:37:26.575Z,1.90
2018-12-30T18:39:42.986Z,1.53
2018-12-30T18:42:51.723Z,9.70
2018-12-30T18:45:32.050Z,6.30
2018-12-30T18:48:01.107Z,6.90
2018-12-30T18:50:30.324Z,1.80
2018-12-30T18:52:59.290Z,1.53
2018-12-30T18:55:40.316Z,2.00
2018-12-30T19:00:39.745Z,18.53
2018-12-30T19:03:08.652Z,3.10
2018-12-30T19:05:56.794Z,6.17
2018-12-30T19:08:40.227Z,2.40
2018-12-30T19:13:32.212Z,4.10
2018-12-30T19:18:50.452Z,8.47
2018-12-30T19:21:19.528Z,10.73
2018-12-30T19:23:48.866Z,7.83
2018-12-30T19:26:36.947Z,1.27
2018-12-30T19:29:07.078Z,0.70
2018-12-30T19:31:36.102Z,0.50
2018-12-30T19:34:04.893Z,0.40
2018-12-30T19:36:53.017Z,1.10
2018-12-30T19:39:21.893Z,4.93
2018-12-30T19:41:50.670Z,3.70
2018-12-30T19:44:19.660Z,2.00
2018-12-30T19:46:48.652Z,0.90
2018-12-30T19:49:17.670Z,0.57
2018-12-30T19:51:46.658Z,1.07
2018-12-30T19:54:46.779Z,1.33
2018-12-30T19:57:05.347Z,0.97
2018-12-30T19:59:34.519Z,0.80
2018-12-30T20:02:03.420Z,0.47
2018-12-30T20:04:51.606Z,0.57
2018-12-30T20:07:20.438Z,8.93
2018-12-30T20:10:03.597Z,4.73
2018-12-30T20:12:19.986Z,3.30
2018-12-30T20:15:03.435Z,1.30
2018-12-30T20:17:20.638Z,0.83
2018-12-30T20:19:49.550Z,0.80
2018-12-30T20:22:18.425Z,0.63
2018-12-30T20:24:47.395Z,1.00
2018-12-30T20:27:16.888Z,2.87
2018-12-30T20:30:09.314Z,2.57
2018-12-30T20:32:39.872Z,1.67
2018-12-30T20:35:09.091Z,2.70
2018-12-30T20:37:38.271Z,0.80
2018-12-30T20:45:23.609Z,1.80
2018-12-30T20:47:52.480Z,1.77
2018-12-30T20:50:21.528Z,1.10
2018-12-30T20:53:05.003Z,0.80
2018-12-30T20:55:21.137Z,0.80
2018-12-30T21:00:56.439Z,0.40
2018-12-30T21:03:25.723Z,0.40
2018-12-30T21:05:57.054Z,0.50
2018-12-30T21:08:25.793Z,0.40
2018-12-30T21:10:54.777Z,0.80
2018-12-30T21:16:18.709Z,2.40
2018-12-30T21:18:47.493Z,1.20
2018-12-30T21:21:16.414Z,0.67
2018-12-30T21:26:45.418Z,1.20
2018-12-30T21:29:10.835Z,0.87
2018-12-30T21:31:39.689Z,0.97
2018-12-30T21:34:08.701Z,0.50
2018-12-30T21:36:37.601Z,0.40
2018-12-30T21:39:46.213Z,0.50
2018-12-30T21:42:15.019Z,0.77
2018-12-30T21:44:43.766Z,0.40
2018-12-30T21:47:12.562Z,0.37
2018-12-30T21:49:41.385Z,0.50
2018-12-30T21:52:10.201Z,0.53
2018-12-30T21:57:26.539Z,0.40
2018-12-30T22:00:14.657Z,0.90
2018-12-30T22:03:02.687Z,0.73
2018-12-30T22:05:31.469Z,0.50
2018-12-30T22:08:00.270Z,0.50
2018-12-30T22:10:29.043Z,0.53
2018-12-30T22:12:58.003Z,0.40
2018-12-30T22:15:26.819Z,0.73
2018-12-30T22:17:58.593Z,0.40
2018-12-30T22:20:27.523Z,0.30
2018-12-30T22:22:56.451Z,0.40
2018-12-30T22:25:25.244Z,1.17
2018-12-30T22:27:54.046Z,0.57
2018-12-30T22:30:22.874Z,0.50
2018-12-30T22:32:53.537Z,0.30
2018-12-30T22:38:30.514Z,0.60
2018-12-30T22:41:21.031Z,0.40
2018-12-30T22:44:10.621Z,0.30
2018-12-30T22:46:39.459Z,0.30
2018-12-30T22:49:08.390Z,0.30
2018-12-30T22:51:37.137Z,0.40
2018-12-30T22:54:05.931Z,0.60
2018-12-30T22:56:36.907Z,1.23
2018-12-30T22:59:05.796Z,0.60
2018-12-30T23:01:34.618Z,0.57
2018-12-30T23:04:03.405Z,0.50
2018-12-30T23:06:32.152Z,0.30
2018-12-30T23:09:00.958Z,0.40
2018-12-30T23:14:17.256Z,0.40
2018-12-30T23:16:45.977Z,0.70
2018-12-30T23:19:14.754Z,0.33
2018-12-30T23:22:02.562Z,0.57
2018-12-30T23:24:31.309Z,0.20
2018-12-30T23:27:02.533Z,0.40
2018-12-30T23:29:31.278Z,0.40
2018-12-30T23:32:39.907Z,0.50
2018-12-30T23:41:23.379Z,0.40
2018-12-30T23:43:52.097Z,0.30
2018-12-30T23:46:21.242Z,0.27
2018-12-30T23:51:24.263Z,0.67
2018-12-30T23:53:53.025Z,0.53
2018-12-30T23:56:21.735Z,0.63
2018-12-30T23:59:01.891Z,0.50
